sensor_id;sensor_type;location;lat;lon;timestamp;temperature;humidity
18091;DHT22;9172;49.948;9.208;2022-10-19T00:01:23;14.90;99.90
18091;DHT22;9172;49.948;9.208;2022-10-19T00:03:55;15.00;99.90
18091;DHT22;9172;49.948;9.208;2022-10-19T00:06:27;14.90;99.90
18091;DHT22;9172;49.948;9.208;2022-10-19T00:09:15;14.90;99.90
18091;DHT22;9172;49.948;9.208;2022-10-19T00:11:46;14.90;99.90
18091;DHT22;9172;49.948;9.208;2022-10-19T00:14:17;14.90;99.90
18091;DHT22;9172;49.948;9.208;2022-10-19T00:16:48;14.90;99.90
18091;DHT22;9172;49.948;9.208;2022-10-19T00:19:19;14.80;99.90
18091;DHT22;9172;49.948;9.208;2022-10-19T00:21:49;14.80;99.90
18091;DHT22;9172;49.948;9.208;2022-10-19T00:24:18;14.80;99.90
18091;DHT22;9172;49.948;9.208;2022-10-19T00:26:47;14.80;99.90
18091;DHT22;9172;49.948;9.208;2022-10-19T00:29:15;14.60;99.90
18091;DHT22;9172;49.948;9.208;2022-10-19T00:31:46;14.30;99.90
18091;DHT22;9172;49.948;9.208;2022-10-19T00:34:16;14.10;99.90
18091;DHT22;9172;49.948;9.208;2022-10-19T00:36:44;14.10;99.90
18091;DHT22;9172;49.948;9.208;2022-10-19T00:39:15;14.20;99.90
18091;DHT22;9172;49.948;9.208;2022-10-19T00:41:45;14.30;99.90
18091;DHT22;9172;49.948;9.208;2022-10-19T00:47:21;14.40;99.90
18091;DHT22;9172;49.948;9.208;2022-10-19T00:49:52;14.40;99.90
18091;DHT22;9172;49.948;9.208;2022-10-19T00:52:24;14.40;99.90
18091;DHT22;9172;49.948;9.208;2022-10-19T00:54:55;14.50;99.90
18091;DHT22;9172;49.948;9.208;2022-10-19T00:57:27;14.40;99.90
18091;DHT22;9172;49.948;9.208;2022-10-19T00:59:58;14.40;99.90
18091;DHT22;9172;49.948;9.208;2022-10-19T01:02:29;14.40;99.90
18091;DHT22;9172;49.948;9.208;2022-10-19T01:04:58;14.40;99.90
18091;DHT22;9172;49.948;9.208;2022-10-19T01:07:27;14.40;99.90
18091;DHT22;9172;49.948;9.208;2022-10-19T01:09:57;14.40;99.90
18091;DHT22;9172;49.948;9.208;2022-10-19T01:15:30;14.50;99.90
18091;DHT22;9172;49.948;9.208;2022-10-19T01:18:03;14.50;99.90
18091;DHT22;9172;49.948;9.208;2022-10-19T01:20:54;14.50;99.90
18091;DHT22;9172;49.948;9.208;2022-10-19T01:26:45;14.60;99.90
18091;DHT22;9172;49.948;9.208;2022-10-19T01:29:16;14.60;99.90
18091;DHT22;9172;49.948;9.208;2022-10-19T01:31:47;14.60;99.90
18091;DHT22;9172;49.948;9.208;2022-10-19T01:34:21;14.50;99.90
18091;DHT22;9172;49.948;9.208;2022-10-19T01:36:53;14.50;99.90
18091;DHT22;9172;49.948;9.208;2022-10-19T01:39:25;14.50;99.90
18091;DHT22;9172;49.948;9.208;2022-10-19T01:41:58;14.50;99.90
18091;DHT22;9172;49.948;9.208;2022-10-19T01:44:30;14.40;99.90
18091;DHT22;9172;49.948;9.208;2022-10-19T01:47:01;14.30;99.90
18091;DHT22;9172;49.948;9.208;2022-10-19T01:49:33;14.10;99.90
18091;DHT22;9172;49.948;9.208;2022-10-19T01:52:04;14.00;99.90
18091;DHT22;9172;49.948;9.208;2022-10-19T01:54:36;14.00;99.90
18091;DHT22;9172;49.948;9.208;2022-10-19T01:57:06;14.10;99.90
18091;DHT22;9172;49.948;9.208;2022-10-19T01:59:36;14.20;99.90
18091;DHT22;9172;49.948;9.208;2022-10-19T02:02:06;14.20;99.90
18091;DHT22;9172;49.948;9.208;2022-10-19T02:04:39;14.30;99.90
18091;DHT22;9172;49.948;9.208;2022-10-19T02:07:10;14.30;99.90
18091;DHT22;9172;49.948;9.208;2022-10-19T02:09:39;14.20;99.90
18091;DHT22;9172;49.948;9.208;2022-10-19T02:12:09;14.20;99.90
18091;DHT22;9172;49.948;9.208;2022-10-19T02:14:40;14.30;99.90
18091;DHT22;9172;49.948;9.208;2022-10-19T02:17:12;14.30;99.90
18091;DHT22;9172;49.948;9.208;2022-10-19T02:19:41;14.30;99.90
18091;DHT22;9172;49.948;9.208;2022-10-19T02:22:11;14.30;99.90
18091;DHT22;9172;49.948;9.208;2022-10-19T02:24:41;14.30;99.90
18091;DHT22;9172;49.948;9.208;2022-10-19T02:27:10;14.30;99.90
18091;DHT22;9172;49.948;9.208;2022-10-19T02:29:39;14.30;99.90
18091;DHT22;9172;49.948;9.208;2022-10-19T02:32:09;14.30;99.90
18091;DHT22;9172;49.948;9.208;2022-10-19T02:34:39;14.30;99.90
18091;DHT22;9172;49.948;9.208;2022-10-19T02:37:08;14.30;99.90
18091;DHT22;9172;49.948;9.208;2022-10-19T02:39:38;14.10;99.90
18091;DHT22;9172;49.948;9.208;2022-10-19T02:42:10;13.80;99.90
18091;DHT22;9172;49.948;9.208;2022-10-19T02:44:41;13.60;99.90
18091;DHT22;9172;49.948;9.208;2022-10-19T02:47:13;13.50;99.90
18091;DHT22;9172;49.948;9.208;2022-10-19T02:49:43;13.40;99.90
18091;DHT22;9172;49.948;9.208;2022-10-19T02:52:13;13.40;99.90
18091;DHT22;9172;49.948;9.208;2022-10-19T02:54:43;13.50;99.90
18091;DHT22;9172;49.948;9.208;2022-10-19T02:57:17;13.60;99.90
18091;DHT22;9172;49.948;9.208;2022-10-19T02:59:46;13.70;99.90
18091;DHT22;9172;49.948;9.208;2022-10-19T03:02:16;13.70;99.90
18091;DHT22;9172;49.948;9.208;2022-10-19T03:04:46;13.50;99.90
18091;DHT22;9172;49.948;9.208;2022-10-19T03:07:17;13.20;99.90
18091;DHT22;9172;49.948;9.208;2022-10-19T03:09:46;13.20;99.90
18091;DHT22;9172;49.948;9.208;2022-10-19T03:12:16;13.20;99.90
18091;DHT22;9172;49.948;9.208;2022-10-19T03:14:45;13.30;99.90
18091;DHT22;9172;49.948;9.208;2022-10-19T03:17:14;13.30;99.90
18091;DHT22;9172;49.948;9.208;2022-10-19T03:19:44;13.20;99.90
18091;DHT22;9172;49.948;9.208;2022-10-19T03:22:13;13.10;99.90
18091;DHT22;9172;49.948;9.208;2022-10-19T03:24:41;13.10;99.90
18091;DHT22;9172;49.948;9.208;2022-10-19T03:27:10;13.00;99.90
18091;DHT22;9172;49.948;9.208;2022-10-19T03:29:39;13.00;99.90
18091;DHT22;9172;49.948;9.208;2022-10-19T03:32:07;13.20;99.90
18091;DHT22;9172;49.948;9.208;2022-10-19T03:34:37;13.30;99.90
18091;DHT22;9172;49.948;9.208;2022-10-19T03:37:06;13.40;99.90
18091;DHT22;9172;49.948;9.208;2022-10-19T03:39:35;13.50;99.90
18091;DHT22;9172;49.948;9.208;2022-10-19T03:42:03;13.50;99.90
18091;DHT22;9172;49.948;9.208;2022-10-19T03:44:32;13.60;99.90
18091;DHT22;9172;49.948;9.208;2022-10-19T03:47:21;13.50;99.90
18091;DHT22;9172;49.948;9.208;2022-10-19T03:49:49;13.30;99.90
18091;DHT22;9172;49.948;9.208;2022-10-19T03:52:19;13.10;99.90
18091;DHT22;9172;49.948;9.208;2022-10-19T03:54:50;12.90;99.90
18091;DHT22;9172;49.948;9.208;2022-10-19T03:57:18;12.80;99.90
18091;DHT22;9172;49.948;9.208;2022-10-19T03:59:48;12.70;99.90
18091;DHT22;9172;49.948;9.208;2022-10-19T04:02:18;12.60;99.90
18091;DHT22;9172;49.948;9.208;2022-10-19T04:04:46;12.70;99.90
18091;DHT22;9172;49.948;9.208;2022-10-19T04:07:16;12.80;99.90
18091;DHT22;9172;49.948;9.208;2022-10-19T04:09:46;12.90;99.90
18091;DHT22;9172;49.948;9.208;2022-10-19T04:12:15;13.00;99.90
18091;DHT22;9172;49.948;9.208;2022-10-19T04:14:44;13.20;99.90
18091;DHT22;9172;49.948;9.208;2022-10-19T04:17:14;13.20;99.90
18091;DHT22;9172;49.948;9.208;2022-10-19T04:19:42;13.30;99.90
18091;DHT22;9172;49.948;9.208;2022-10-19T04:22:11;13.30;99.90
18091;DHT22;9172;49.948;9.208;2022-10-19T04:24:40;13.20;99.90
18091;DHT22;9172;49.948;9.208;2022-10-19T04:27:10;13.10;99.90
18091;DHT22;9172;49.948;9.208;2022-10-19T04:29:38;13.10;99.90
18091;DHT22;9172;49.948;9.208;2022-10-19T04:32:08;13.20;99.90
18091;DHT22;9172;49.948;9.208;2022-10-19T04:34:36;13.20;99.90
18091;DHT22;9172;49.948;9.208;2022-10-19T04:37:06;13.30;99.90
18091;DHT22;9172;49.948;9.208;2022-10-19T04:39:35;13.30;99.90
18091;DHT22;9172;49.948;9.208;2022-10-19T04:42:06;13.30;99.90
18091;DHT22;9172;49.948;9.208;2022-10-19T04:44:37;13.30;99.90
18091;DHT22;9172;49.948;9.208;2022-10-19T04:47:06;13.40;99.90
18091;DHT22;9172;49.948;9.208;2022-10-19T04:49:35;13.40;99.90
18091;DHT22;9172;49.948;9.208;2022-10-19T04:52:04;13.20;99.90
18091;DHT22;9172;49.948;9.208;2022-10-19T04:54:34;13.30;99.90
18091;DHT22;9172;49.948;9.208;2022-10-19T04:57:03;13.30;99.90
18091;DHT22;9172;49.948;9.208;2022-10-19T04:59:32;13.30;99.90
18091;DHT22;9172;49.948;9.208;2022-10-19T05:02:00;13.40;99.90
18091;DHT22;9172;49.948;9.208;2022-10-19T05:04:29;13.40;99.90
18091;DHT22;9172;49.948;9.208;2022-10-19T05:06:58;13.40;99.90
18091;DHT22;9172;49.948;9.208;2022-10-19T05:09:27;13.40;99.90
18091;DHT22;9172;49.948;9.208;2022-10-19T05:11:55;13.40;99.90
18091;DHT22;9172;49.948;9.208;2022-10-19T05:14:24;13.40;99.90
18091;DHT22;9172;49.948;9.208;2022-10-19T05:16:53;13.00;99.90
18091;DHT22;9172;49.948;9.208;2022-10-19T05:19:21;12.80;99.90
18091;DHT22;9172;49.948;9.208;2022-10-19T05:21:51;12.70;99.90
18091;DHT22;9172;49.948;9.208;2022-10-19T05:24:19;12.50;99.90
18091;DHT22;9172;49.948;9.208;2022-10-19T05:26:48;12.40;99.90
18091;DHT22;9172;49.948;9.208;2022-10-19T05:29:17;12.50;99.90
18091;DHT22;9172;49.948;9.208;2022-10-19T05:31:46;12.60;99.90
18091;DHT22;9172;49.948;9.208;2022-10-19T05:34:14;12.50;99.90
18091;DHT22;9172;49.948;9.208;2022-10-19T05:36:44;12.30;99.90
18091;DHT22;9172;49.948;9.208;2022-10-19T05:39:15;12.10;99.90
18091;DHT22;9172;49.948;9.208;2022-10-19T05:41:46;12.00;99.90
18091;DHT22;9172;49.948;9.208;2022-10-19T05:44:16;12.00;99.90
18091;DHT22;9172;49.948;9.208;2022-10-19T05:46:46;12.00;99.90
18091;DHT22;9172;49.948;9.208;2022-10-19T05:49:16;12.10;99.90
18091;DHT22;9172;49.948;9.208;2022-10-19T05:51:45;12.20;99.90
18091;DHT22;9172;49.948;9.208;2022-10-19T05:54:14;12.30;99.90
18091;DHT22;9172;49.948;9.208;2022-10-19T05:56:43;12.40;99.90
18091;DHT22;9172;49.948;9.208;2022-10-19T05:59:16;12.40;99.90
18091;DHT22;9172;49.948;9.208;2022-10-19T06:01:46;12.50;99.90
18091;DHT22;9172;49.948;9.208;2022-10-19T06:04:15;12.50;99.90
18091;DHT22;9172;49.948;9.208;2022-10-19T06:06:45;12.60;99.90
18091;DHT22;9172;49.948;9.208;2022-10-19T06:09:13;12.60;99.90
18091;DHT22;9172;49.948;9.208;2022-10-19T06:11:43;12.60;99.90
18091;DHT22;9172;49.948;9.208;2022-10-19T06:14:13;12.60;99.90
18091;DHT22;9172;49.948;9.208;2022-10-19T06:16:44;12.70;99.90
18091;DHT22;9172;49.948;9.208;2022-10-19T06:19:13;12.70;99.90
18091;DHT22;9172;49.948;9.208;2022-10-19T06:21:44;12.50;99.90
18091;DHT22;9172;49.948;9.208;2022-10-19T06:24:13;12.30;99.90
18091;DHT22;9172;49.948;9.208;2022-10-19T06:26:42;12.30;99.90
18091;DHT22;9172;49.948;9.208;2022-10-19T06:29:11;12.40;99.90
18091;DHT22;9172;49.948;9.208;2022-10-19T06:31:39;12.40;99.90
18091;DHT22;9172;49.948;9.208;2022-10-19T06:34:08;12.50;99.90
18091;DHT22;9172;49.948;9.208;2022-10-19T06:36:37;12.60;99.90
18091;DHT22;9172;49.948;9.208;2022-10-19T06:39:06;12.60;99.90
18091;DHT22;9172;49.948;9.208;2022-10-19T06:41:34;12.60;99.90
18091;DHT22;9172;49.948;9.208;2022-10-19T06:44:03;12.70;99.90
18091;DHT22;9172;49.948;9.208;2022-10-19T06:46:31;12.70;99.90
18091;DHT22;9172;49.948;9.208;2022-10-19T06:49:02;12.70;99.90
18091;DHT22;9172;49.948;9.208;2022-10-19T06:51:32;14.20;99.90
18091;DHT22;9172;49.948;9.208;2022-10-19T06:54:02;12.70;99.90
18091;DHT22;9172;49.948;9.208;2022-10-19T06:56:30;12.60;99.90
18091;DHT22;9172;49.948;9.208;2022-10-19T06:59:00;12.60;99.90
18091;DHT22;9172;49.948;9.208;2022-10-19T07:01:29;12.50;99.90
18091;DHT22;9172;49.948;9.208;2022-10-19T07:03:57;12.20;99.90
18091;DHT22;9172;49.948;9.208;2022-10-19T07:06:27;12.20;99.90
18091;DHT22;9172;49.948;9.208;2022-10-19T07:08:56;12.30;99.90
18091;DHT22;9172;49.948;9.208;2022-10-19T07:11:24;12.30;99.90
18091;DHT22;9172;49.948;9.208;2022-10-19T07:13:53;12.30;99.90
18091;DHT22;9172;49.948;9.208;2022-10-19T07:16:22;12.40;99.90
18091;DHT22;9172;49.948;9.208;2022-10-19T07:18:52;12.50;99.90
18091;DHT22;9172;49.948;9.208;2022-10-19T07:21:22;12.50;99.90
18091;DHT22;9172;49.948;9.208;2022-10-19T07:23:50;12.50;99.90
18091;DHT22;9172;49.948;9.208;2022-10-19T07:26:21;12.60;99.90
18091;DHT22;9172;49.948;9.208;2022-10-19T07:28:54;12.60;99.90
18091;DHT22;9172;49.948;9.208;2022-10-19T07:31:26;12.80;99.90
18091;DHT22;9172;49.948;9.208;2022-10-19T07:33:56;12.80;99.90
18091;DHT22;9172;49.948;9.208;2022-10-19T07:36:26;12.90;99.90
18091;DHT22;9172;49.948;9.208;2022-10-19T07:38:56;12.90;99.90
18091;DHT22;9172;49.948;9.208;2022-10-19T07:41:26;13.00;99.90
18091;DHT22;9172;49.948;9.208;2022-10-19T07:43:55;13.00;99.90
18091;DHT22;9172;49.948;9.208;2022-10-19T07:46:26;13.00;99.90
18091;DHT22;9172;49.948;9.208;2022-10-19T07:48:55;13.10;99.90
18091;DHT22;9172;49.948;9.208;2022-10-19T07:51:25;13.10;99.90
18091;DHT22;9172;49.948;9.208;2022-10-19T07:53:55;13.20;99.90
18091;DHT22;9172;49.948;9.208;2022-10-19T07:56:27;13.20;99.90
18091;DHT22;9172;49.948;9.208;2022-10-19T07:58:58;13.20;99.90
18091;DHT22;9172;49.948;9.208;2022-10-19T08:01:29;13.20;99.90
18091;DHT22;9172;49.948;9.208;2022-10-19T08:03:59;13.20;99.90
18091;DHT22;9172;49.948;9.208;2022-10-19T08:06:28;13.20;99.90
18091;DHT22;9172;49.948;9.208;2022-10-19T08:08:58;13.20;99.90
18091;DHT22;9172;49.948;9.208;2022-10-19T08:11:30;13.10;99.90
18091;DHT22;9172;49.948;9.208;2022-10-19T08:13:59;13.00;99.90
18091;DHT22;9172;49.948;9.208;2022-10-19T08:16:31;13.00;99.90
18091;DHT22;9172;49.948;9.208;2022-10-19T08:19:01;13.00;99.90
18091;DHT22;9172;49.948;9.208;2022-10-19T08:21:30;13.10;99.90
18091;DHT22;9172;49.948;9.208;2022-10-19T08:24:00;13.10;99.90
18091;DHT22;9172;49.948;9.208;2022-10-19T08:26:29;13.10;99.90
18091;DHT22;9172;49.948;9.208;2022-10-19T08:29:02;13.20;99.90
18091;DHT22;9172;49.948;9.208;2022-10-19T08:31:31;13.20;99.90
18091;DHT22;9172;49.948;9.208;2022-10-19T08:34:01;13.30;99.90
18091;DHT22;9172;49.948;9.208;2022-10-19T08:36:30;13.40;99.90
18091;DHT22;9172;49.948;9.208;2022-10-19T08:38:59;13.50;99.90
18091;DHT22;9172;49.948;9.208;2022-10-19T08:41:31;13.50;99.90
18091;DHT22;9172;49.948;9.208;2022-10-19T08:44:10;13.60;99.90
18091;DHT22;9172;49.948;9.208;2022-10-19T08:46:42;13.60;99.90
18091;DHT22;9172;49.948;9.208;2022-10-19T08:49:14;13.60;99.90
18091;DHT22;9172;49.948;9.208;2022-10-19T08:51:45;13.70;99.90
18091;DHT22;9172;49.948;9.208;2022-10-19T08:54:16;13.70;99.90
18091;DHT22;9172;49.948;9.208;2022-10-19T08:56:48;13.80;99.90
18091;DHT22;9172;49.948;9.208;2022-10-19T08:59:25;14.00;99.90
18091;DHT22;9172;49.948;9.208;2022-10-19T09:01:56;14.00;99.90
18091;DHT22;9172;49.948;9.208;2022-10-19T09:04:29;14.10;99.90
18091;DHT22;9172;49.948;9.208;2022-10-19T09:07:18;14.10;99.90
18091;DHT22;9172;49.948;9.208;2022-10-19T09:09:48;14.20;99.90
18091;DHT22;9172;49.948;9.208;2022-10-19T09:12:27;14.30;99.90
18091;DHT22;9172;49.948;9.208;2022-10-19T09:14:54;14.30;99.90
18091;DHT22;9172;49.948;9.208;2022-10-19T09:17:23;14.30;99.90
18091;DHT22;9172;49.948;9.208;2022-10-19T09:19:52;14.30;99.90
18091;DHT22;9172;49.948;9.208;2022-10-19T09:22:23;14.30;99.90
18091;DHT22;9172;49.948;9.208;2022-10-19T09:24:54;14.30;99.90
18091;DHT22;9172;49.948;9.208;2022-10-19T09:27:27;14.30;99.90
18091;DHT22;9172;49.948;9.208;2022-10-19T09:29:56;14.20;99.90
18091;DHT22;9172;49.948;9.208;2022-10-19T09:32:28;14.10;99.90
18091;DHT22;9172;49.948;9.208;2022-10-19T09:34:59;14.20;99.90
18091;DHT22;9172;49.948;9.208;2022-10-19T09:37:29;14.20;99.90
18091;DHT22;9172;49.948;9.208;2022-10-19T09:40:01;14.20;99.90
18091;DHT22;9172;49.948;9.208;2022-10-19T09:42:31;14.30;99.90
18091;DHT22;9172;49.948;9.208;2022-10-19T09:45:05;14.30;99.90
18091;DHT22;9172;49.948;9.208;2022-10-19T09:47:33;14.20;99.90
18091;DHT22;9172;49.948;9.208;2022-10-19T09:50:15;14.30;99.90
18091;DHT22;9172;49.948;9.208;2022-10-19T09:52:45;14.30;99.90
18091;DHT22;9172;49.948;9.208;2022-10-19T09:55:26;14.30;99.90
18091;DHT22;9172;49.948;9.208;2022-10-19T09:58:02;14.20;99.90
18091;DHT22;9172;49.948;9.208;2022-10-19T10:00:39;14.20;99.90
18091;DHT22;9172;49.948;9.208;2022-10-19T10:03:21;14.20;99.90
18091;DHT22;9172;49.948;9.208;2022-10-19T10:05:50;14.20;99.90
18091;DHT22;9172;49.948;9.208;2022-10-19T10:08:21;14.20;99.90
18091;DHT22;9172;49.948;9.208;2022-10-19T10:11:02;14.10;99.90
18091;DHT22;9172;49.948;9.208;2022-10-19T10:13:29;14.20;99.90
18091;DHT22;9172;49.948;9.208;2022-10-19T10:15:59;14.20;99.90
18091;DHT22;9172;49.948;9.208;2022-10-19T10:18:29;14.20;99.90
18091;DHT22;9172;49.948;9.208;2022-10-19T10:21:00;14.20;99.90
18091;DHT22;9172;49.948;9.208;2022-10-19T10:23:31;14.30;99.90
18091;DHT22;9172;49.948;9.208;2022-10-19T10:26:03;14.30;99.90
18091;DHT22;9172;49.948;9.208;2022-10-19T10:28:32;14.40;99.90
18091;DHT22;9172;49.948;9.208;2022-10-19T10:31:04;14.40;99.90
18091;DHT22;9172;49.948;9.208;2022-10-19T10:33:36;14.40;99.90
18091;DHT22;9172;49.948;9.208;2022-10-19T10:36:07;14.40;99.90
18091;DHT22;9172;49.948;9.208;2022-10-19T10:38:38;14.40;99.90
18091;DHT22;9172;49.948;9.208;2022-10-19T10:41:12;14.50;99.90
18091;DHT22;9172;49.948;9.208;2022-10-19T10:43:51;14.50;99.90
18091;DHT22;9172;49.948;9.208;2022-10-19T10:46:24;14.50;99.90
18091;DHT22;9172;49.948;9.208;2022-10-19T10:48:55;14.50;99.90
18091;DHT22;9172;49.948;9.208;2022-10-19T10:51:29;14.50;99.90
18091;DHT22;9172;49.948;9.208;2022-10-19T10:54:11;14.50;99.90
18091;DHT22;9172;49.948;9.208;2022-10-19T10:56:39;14.40;99.90
18091;DHT22;9172;49.948;9.208;2022-10-19T10:59:13;14.40;99.90
18091;DHT22;9172;49.948;9.208;2022-10-19T11:01:46;14.40;99.90
18091;DHT22;9172;49.948;9.208;2022-10-19T11:04:16;14.30;99.90
18091;DHT22;9172;49.948;9.208;2022-10-19T11:09:30;14.40;99.90
18091;DHT22;9172;49.948;9.208;2022-10-19T11:12:02;14.30;99.90
18091;DHT22;9172;49.948;9.208;2022-10-19T11:14:36;14.30;99.90
18091;DHT22;9172;49.948;9.208;2022-10-19T11:19:42;14.30;99.90
18091;DHT22;9172;49.948;9.208;2022-10-19T11:25:14;14.40;99.90
18091;DHT22;9172;49.948;9.208;2022-10-19T11:27:46;14.30;99.90
18091;DHT22;9172;49.948;9.208;2022-10-19T11:33:02;14.30;99.90
18091;DHT22;9172;49.948;9.208;2022-10-19T11:35:46;14.30;99.90
18091;DHT22;9172;49.948;9.208;2022-10-19T11:38:41;14.30;99.90
18091;DHT22;9172;49.948;9.208;2022-10-19T11:41:17;14.40;99.90
18091;DHT22;9172;49.948;9.208;2022-10-19T11:43:52;14.40;99.90
18091;DHT22;9172;49.948;9.208;2022-10-19T11:49:08;14.40;99.90
18091;DHT22;9172;49.948;9.208;2022-10-19T11:51:42;14.40;99.90
18091;DHT22;9172;49.948;9.208;2022-10-19T11:54:19;14.30;99.90
18091;DHT22;9172;49.948;9.208;2022-10-19T11:56:50;14.30;99.90
18091;DHT22;9172;49.948;9.208;2022-10-19T11:59:24;14.20;99.90
18091;DHT22;9172;49.948;9.208;2022-10-19T12:01:59;14.20;99.90
18091;DHT22;9172;49.948;9.208;2022-10-19T12:04:43;14.20;99.90
18091;DHT22;9172;49.948;9.208;2022-10-19T12:07:38;14.30;99.90
18091;DHT22;9172;49.948;9.208;2022-10-19T12:10:13;14.30;99.90
18091;DHT22;9172;49.948;9.208;2022-10-19T12:12:46;14.30;99.90
18091;DHT22;9172;49.948;9.208;2022-10-19T12:15:20;14.20;99.90
18091;DHT22;9172;49.948;9.208;2022-10-19T12:17:53;14.20;99.90
18091;DHT22;9172;49.948;9.208;2022-10-19T12:20:27;14.20;99.90
18091;DHT22;9172;49.948;9.208;2022-10-19T12:22:56;14.20;99.90
18091;DHT22;9172;49.948;9.208;2022-10-19T12:25:26;14.20;99.90
18091;DHT22;9172;49.948;9.208;2022-10-19T12:27:55;14.20;99.90
18091;DHT22;9172;49.948;9.208;2022-10-19T12:30:24;14.10;99.90
18091;DHT22;9172;49.948;9.208;2022-10-19T12:33:01;14.10;99.90
18091;DHT22;9172;49.948;9.208;2022-10-19T12:35:46;14.10;99.90
18091;DHT22;9172;49.948;9.208;2022-10-19T12:38:18;14.10;99.90
18091;DHT22;9172;49.948;9.208;2022-10-19T12:40:50;14.10;99.90
18091;DHT22;9172;49.948;9.208;2022-10-19T12:43:23;14.10;99.90
18091;DHT22;9172;49.948;9.208;2022-10-19T12:45:59;14.10;99.90
18091;DHT22;9172;49.948;9.208;2022-10-19T12:48:30;14.20;99.90
18091;DHT22;9172;49.948;9.208;2022-10-19T12:51:01;14.20;99.90
18091;DHT22;9172;49.948;9.208;2022-10-19T12:53:32;14.20;99.90
18091;DHT22;9172;49.948;9.208;2022-10-19T12:56:06;14.10;99.90
18091;DHT22;9172;49.948;9.208;2022-10-19T12:58:38;14.10;99.90
18091;DHT22;9172;49.948;9.208;2022-10-19T13:01:13;14.00;99.90
18091;DHT22;9172;49.948;9.208;2022-10-19T13:03:41;14.00;99.90
18091;DHT22;9172;49.948;9.208;2022-10-19T13:06:14;14.00;99.90
18091;DHT22;9172;49.948;9.208;2022-10-19T13:08:46;14.00;99.90
18091;DHT22;9172;49.948;9.208;2022-10-19T13:11:15;13.90;99.90
18091;DHT22;9172;49.948;9.208;2022-10-19T13:13:56;13.90;99.90
18091;DHT22;9172;49.948;9.208;2022-10-19T13:19:29;14.00;99.90
18091;DHT22;9172;49.948;9.208;2022-10-19T13:22:26;14.00;99.90
18091;DHT22;9172;49.948;9.208;2022-10-19T13:25:22;14.00;99.90
18091;DHT22;9172;49.948;9.208;2022-10-19T13:27:54;14.00;99.90
18091;DHT22;9172;49.948;9.208;2022-10-19T13:31:00;13.90;99.90
18091;DHT22;9172;49.948;9.208;2022-10-19T13:36:19;13.90;99.90
18091;DHT22;9172;49.948;9.208;2022-10-19T13:39:11;13.80;99.90
18091;DHT22;9172;49.948;9.208;2022-10-19T13:41:53;13.90;99.90
18091;DHT22;9172;49.948;9.208;2022-10-19T13:44:26;13.90;99.90
18091;DHT22;9172;49.948;9.208;2022-10-19T13:47:24;13.90;99.90
18091;DHT22;9172;49.948;9.208;2022-10-19T13:50:21;13.80;99.90
18091;DHT22;9172;49.948;9.208;2022-10-19T13:53:02;13.90;99.90
18091;DHT22;9172;49.948;9.208;2022-10-19T13:55:49;13.90;99.90
18091;DHT22;9172;49.948;9.208;2022-10-19T13:58:40;13.80;99.90
18091;DHT22;9172;49.948;9.208;2022-10-19T14:01:19;13.80;99.90
18091;DHT22;9172;49.948;9.208;2022-10-19T14:04:04;13.80;99.90
18091;DHT22;9172;49.948;9.208;2022-10-19T14:06:37;13.80;99.90
18091;DHT22;9172;49.948;9.208;2022-10-19T14:12:05;13.80;99.90
18091;DHT22;9172;49.948;9.208;2022-10-19T14:14:39;13.80;99.90
18091;DHT22;9172;49.948;9.208;2022-10-19T14:17:15;13.90;99.90
18091;DHT22;9172;49.948;9.208;2022-10-19T14:19:46;13.90;99.90
18091;DHT22;9172;49.948;9.208;2022-10-19T14:22:25;13.90;99.90
18091;DHT22;9172;49.948;9.208;2022-10-19T14:25:01;13.90;99.90
18091;DHT22;9172;49.948;9.208;2022-10-19T14:27:30;13.90;99.90
18091;DHT22;9172;49.948;9.208;2022-10-19T14:30:01;13.90;99.90
18091;DHT22;9172;49.948;9.208;2022-10-19T14:32:33;13.90;99.90
18091;DHT22;9172;49.948;9.208;2022-10-19T14:35:12;13.90;99.90
18091;DHT22;9172;49.948;9.208;2022-10-19T14:37:36;14.00;99.90
18091;DHT22;9172;49.948;9.208;2022-10-19T14:40:15;15.50;99.90
18091;DHT22;9172;49.948;9.208;2022-10-19T14:42:39;14.00;99.90
18091;DHT22;9172;49.948;9.208;2022-10-19T14:45:17;14.00;99.90
18091;DHT22;9172;49.948;9.208;2022-10-19T14:47:58;14.00;99.90
18091;DHT22;9172;49.948;9.208;2022-10-19T14:50:36;14.10;99.90
18091;DHT22;9172;49.948;9.208;2022-10-19T14:53:12;14.10;99.90
18091;DHT22;9172;49.948;9.208;2022-10-19T14:55:39;14.20;99.90
18091;DHT22;9172;49.948;9.208;2022-10-19T14:58:12;14.10;99.90
18091;DHT22;9172;49.948;9.208;2022-10-19T15:00:41;14.20;99.90
18091;DHT22;9172;49.948;9.208;2022-10-19T15:03:20;14.20;99.90
18091;DHT22;9172;49.948;9.208;2022-10-19T15:05:46;14.20;99.90
18091;DHT22;9172;49.948;9.208;2022-10-19T15:08:19;14.30;99.90
18091;DHT22;9172;49.948;9.208;2022-10-19T15:10:49;14.20;99.90
18091;DHT22;9172;49.948;9.208;2022-10-19T15:13:22;14.20;99.90
18091;DHT22;9172;49.948;9.208;2022-10-19T15:15:53;14.20;99.90
18091;DHT22;9172;49.948;9.208;2022-10-19T15:18:24;14.20;99.90
18091;DHT22;9172;49.948;9.208;2022-10-19T15:21:03;14.10;99.90
18091;DHT22;9172;49.948;9.208;2022-10-19T15:23:40;14.10;99.90
18091;DHT22;9172;49.948;9.208;2022-10-19T15:26:19;14.10;99.90
18091;DHT22;9172;49.948;9.208;2022-10-19T15:28:48;14.10;99.90
18091;DHT22;9172;49.948;9.208;2022-10-19T15:31:18;14.10;99.90
18091;DHT22;9172;49.948;9.208;2022-10-19T15:33:50;14.10;99.90
18091;DHT22;9172;49.948;9.208;2022-10-19T15:36:20;14.10;99.90
18091;DHT22;9172;49.948;9.208;2022-10-19T15:38:59;14.00;99.90
18091;DHT22;9172;49.948;9.208;2022-10-19T15:41:30;14.00;99.90
18091;DHT22;9172;49.948;9.208;2022-10-19T15:43:59;14.00;99.90
18091;DHT22;9172;49.948;9.208;2022-10-19T15:46:32;13.90;99.90
18091;DHT22;9172;49.948;9.208;2022-10-19T15:49:03;14.00;99.90
18091;DHT22;9172;49.948;9.208;2022-10-19T15:51:41;14.00;99.90
18091;DHT22;9172;49.948;9.208;2022-10-19T15:54:11;13.90;99.90
18091;DHT22;9172;49.948;9.208;2022-10-19T15:56:43;14.00;99.90
18091;DHT22;9172;49.948;9.208;2022-10-19T15:59:16;14.00;99.90
18091;DHT22;9172;49.948;9.208;2022-10-19T16:01:46;13.90;99.90
18091;DHT22;9172;49.948;9.208;2022-10-19T16:04:16;13.90;99.90
18091;DHT22;9172;49.948;9.208;2022-10-19T16:06:45;13.90;99.90
18091;DHT22;9172;49.948;9.208;2022-10-19T16:09:18;13.90;99.90
18091;DHT22;9172;49.948;9.208;2022-10-19T16:11:47;14.00;99.90
18091;DHT22;9172;49.948;9.208;2022-10-19T16:14:18;13.90;99.90
18091;DHT22;9172;49.948;9.208;2022-10-19T16:16:48;13.90;99.90
18091;DHT22;9172;49.948;9.208;2022-10-19T16:19:17;13.90;99.90
18091;DHT22;9172;49.948;9.208;2022-10-19T16:21:47;13.80;99.90
18091;DHT22;9172;49.948;9.208;2022-10-19T16:24:17;13.80;99.90
18091;DHT22;9172;49.948;9.208;2022-10-19T16:26:45;13.90;99.90
18091;DHT22;9172;49.948;9.208;2022-10-19T16:29:15;13.80;99.90
18091;DHT22;9172;49.948;9.208;2022-10-19T16:31:43;13.80;99.90
18091;DHT22;9172;49.948;9.208;2022-10-19T16:34:12;13.80;99.90
18091;DHT22;9172;49.948;9.208;2022-10-19T16:36:41;13.70;99.90
18091;DHT22;9172;49.948;9.208;2022-10-19T16:39:09;13.70;99.90
18091;DHT22;9172;49.948;9.208;2022-10-19T16:41:38;13.70;99.90
18091;DHT22;9172;49.948;9.208;2022-10-19T16:44:08;13.70;99.90
18091;DHT22;9172;49.948;9.208;2022-10-19T16:46:38;13.70;99.90